createdAt,value
2023-02-19T00:01:38.750Z,6.23
2023-02-19T00:04:41.648Z,6.22
2023-02-19T00:07:45.666Z,6.19
2023-02-19T00:10:48.402Z,6.18
2023-02-19T00:13:53.688Z,6.21
2023-02-19T00:16:56.375Z,6.25
2023-02-19T00:19:59.052Z,6.24
2023-02-19T00:23:03.058Z,6.26
2023-02-19T00:26:17.651Z,6.31
2023-02-19T00:29:22.658Z,6.32
2023-02-19T00:32:25.396Z,6.31
2023-02-19T00:35:28.100Z,6.29
2023-02-19T00:38:32.833Z,6.30
2023-02-19T00:41:35.834Z,6.34
2023-02-19T00:44:38.535Z,6.30
2023-02-19T00:47:41.259Z,6.28
2023-02-19T00:50:44.586Z,6.28
2023-02-19T00:53:49.228Z,6.25
2023-02-19T00:56:52.539Z,6.29
2023-02-19T00:59:55.298Z,6.28
2023-02-19T01:02:57.962Z,6.23
2023-02-19T01:06:01.045Z,6.19
2023-02-19T01:09:07.139Z,6.27
2023-02-19T01:12:09.822Z,6.23
2023-02-19T01:15:12.466Z,6.20
2023-02-19T01:18:15.170Z,6.14
2023-02-19T01:21:19.970Z,6.10
2023-02-19T01:24:24.028Z,6.15
2023-02-19T01:27:26.775Z,6.01
2023-02-19T01:30:29.559Z,6.02
2023-02-19T01:33:32.951Z,6.04
2023-02-19T01:36:36.837Z,6.01
2023-02-19T01:39:40.877Z,6.00
2023-02-19T01:42:44.808Z,5.99
2023-02-19T01:45:48.150Z,6.02
2023-02-19T01:48:50.911Z,5.98
2023-02-19T01:51:58.917Z,5.94
2023-02-19T01:55:05.946Z,5.69
2023-02-19T01:58:10.344Z,5.86
2023-02-19T02:01:13.778Z,5.77
2023-02-19T02:04:18.253Z,5.68
2023-02-19T02:07:38.794Z,5.16
2023-02-19T02:10:43.911Z,5.49
2023-02-19T02:13:47.212Z,5.35
2023-02-19T02:16:59.816Z,5.55
2023-02-19T02:20:28.746Z,5.37
2023-02-19T02:23:41.726Z,5.27
2023-02-19T02:26:59.617Z,5.22
2023-02-19T02:30:18.602Z,5.19
2023-02-19T02:33:30.176Z,5.25
2023-02-19T02:36:36.815Z,5.24
2023-02-19T02:39:42.161Z,5.31
2023-02-19T02:42:45.234Z,5.41
2023-02-19T02:45:49.320Z,5.04
2023-02-19T02:48:56.663Z,5.33
2023-02-19T02:52:21.342Z,5.35
2023-02-19T02:55:24.757Z,5.45
2023-02-19T02:58:29.060Z,5.32
2023-02-19T03:01:55.124Z,5.09
2023-02-19T03:05:25.555Z,5.30
2023-02-19T03:08:32.627Z,5.25
2023-02-19T03:11:54.797Z,5.20
2023-02-19T03:15:21.827Z,5.13
2023-02-19T03:18:46.817Z,5.28
2023-02-19T03:21:54.482Z,5.34
2023-02-19T03:25:19.234Z,5.36
2023-02-19T03:28:46.663Z,5.29
2023-02-19T03:31:53.366Z,5.25
2023-02-19T03:35:03.019Z,5.26
2023-02-19T03:38:10.840Z,5.34
2023-02-19T03:41:22.027Z,5.32
2023-02-19T03:44:36.699Z,5.39
2023-02-19T03:47:49.812Z,5.42
2023-02-19T03:51:05.808Z,5.40
2023-02-19T03:54:14.504Z,5.40
2023-02-19T03:57:21.867Z,5.37
2023-02-19T04:00:31.097Z,5.36
2023-02-19T04:03:38.528Z,5.40
2023-02-19T04:06:43.762Z,5.45
2023-02-19T04:09:50.391Z,5.31
2023-02-19T04:12:57.734Z,5.29
2023-02-19T04:16:07.754Z,5.31
2023-02-19T04:19:13.337Z,5.30
2023-02-19T04:22:18.369Z,5.33
2023-02-19T04:25:22.296Z,5.32
2023-02-19T04:28:26.114Z,5.30
2023-02-19T04:31:35.237Z,5.32
2023-02-19T04:34:38.015Z,5.25
2023-02-19T04:37:42.109Z,5.28
2023-02-19T04:40:44.900Z,5.29
2023-02-19T04:43:47.603Z,5.29
2023-02-19T04:46:50.389Z,5.29
2023-02-19T04:49:53.059Z,5.30
2023-02-19T04:52:57.357Z,5.32
2023-02-19T04:56:07.012Z,5.26
2023-02-19T04:59:09.772Z,5.23
2023-02-19T05:02:12.478Z,5.22
2023-02-19T05:05:15.202Z,5.25
2023-02-19T05:08:19.237Z,5.21
2023-02-19T05:11:24.050Z,5.22
2023-02-19T05:14:26.819Z,5.19
2023-02-19T05:17:29.475Z,5.20
2023-02-19T05:20:32.168Z,5.17
2023-02-19T05:23:36.231Z,5.17
2023-02-19T05:26:39.004Z,5.13
2023-02-19T05:29:41.653Z,5.06
2023-02-19T05:32:44.348Z,5.08
2023-02-19T05:35:48.660Z,5.09
2023-02-19T05:38:55.725Z,5.04
2023-02-19T05:41:58.428Z,4.95
2023-02-19T05:45:01.087Z,4.92
2023-02-19T05:48:04.330Z,4.98
2023-02-19T05:51:09.457Z,4.90
2023-02-19T05:54:13.683Z,4.82
2023-02-19T05:57:16.450Z,4.78
2023-02-19T06:00:21.455Z,4.78
2023-02-19T06:03:24.581Z,4.71
2023-02-19T06:06:28.020Z,4.71
2023-02-19T06:09:32.304Z,4.65
2023-02-19T06:12:34.991Z,4.60
2023-02-19T06:15:38.413Z,4.67
2023-02-19T06:18:41.588Z,4.68
2023-02-19T06:21:44.324Z,4.69
2023-02-19T06:24:48.745Z,4.61
2023-02-19T06:27:51.401Z,4.55
2023-02-19T06:30:54.027Z,4.55
2023-02-19T06:33:56.772Z,4.54
2023-02-19T06:36:59.824Z,4.52
2023-02-19T06:40:03.932Z,4.53
2023-02-19T06:43:06.643Z,4.45
2023-02-19T06:46:11.410Z,4.40
2023-02-19T06:49:15.297Z,4.42
2023-02-19T06:52:17.952Z,4.46
2023-02-19T06:55:21.991Z,4.28
2023-02-19T06:58:24.952Z,4.46
2023-02-19T07:01:29.000Z,4.57
2023-02-19T07:04:31.664Z,4.52
2023-02-19T07:07:34.346Z,4.55
2023-02-19T07:10:38.357Z,4.59
2023-02-19T07:13:41.268Z,4.61
2023-02-19T07:16:44.613Z,4.47
2023-02-19T07:19:47.364Z,4.45
2023-02-19T07:22:50.093Z,4.50
2023-02-19T07:25:54.149Z,4.41
2023-02-19T07:28:56.929Z,4.52
2023-02-19T07:31:59.593Z,4.66
2023-02-19T07:35:02.397Z,4.72
2023-02-19T07:38:05.164Z,4.64
2023-02-19T07:41:09.892Z,4.71
2023-02-19T07:44:16.389Z,4.62
2023-02-19T07:47:19.038Z,4.78
2023-02-19T07:50:21.744Z,4.79
2023-02-19T07:53:25.260Z,4.85
2023-02-19T07:56:29.794Z,4.95
2023-02-19T07:59:32.445Z,4.79
2023-02-19T08:02:52.827Z,5.07
2023-02-19T08:05:55.522Z,5.13
2023-02-19T08:08:58.515Z,5.15
2023-02-19T08:12:19.774Z,4.84
2023-02-19T08:15:22.590Z,4.82
2023-02-19T08:18:27.751Z,4.97
2023-02-19T08:21:31.308Z,5.03
2023-02-19T08:24:34.895Z,4.94
2023-02-19T08:27:38.973Z,5.05
2023-02-19T08:30:45.245Z,5.29
2023-02-19T08:33:47.999Z,5.06
2023-02-19T08:36:50.715Z,5.19
2023-02-19T08:39:53.406Z,5.37
2023-02-19T08:42:57.387Z,5.40
2023-02-19T08:46:00.530Z,5.48
2023-02-19T08:49:03.263Z,5.74
2023-02-19T08:52:05.942Z,5.47
2023-02-19T08:55:08.952Z,5.80
2023-02-19T08:58:13.454Z,5.60
2023-02-19T09:01:18.293Z,5.79
2023-02-19T09:04:21.374Z,6.01
2023-02-19T09:07:24.089Z,6.17
2023-02-19T09:10:26.845Z,6.18
2023-02-19T09:13:30.916Z,6.15
2023-02-19T09:16:33.572Z,6.26
2023-02-19T09:19:36.843Z,6.05
2023-02-19T09:22:39.545Z,6.26
2023-02-19T09:25:42.249Z,6.07
2023-02-19T09:28:46.260Z,6.49
2023-02-19T09:31:49.142Z,6.64
2023-02-19T09:34:51.823Z,7.00
2023-02-19T09:37:54.498Z,6.76
2023-02-19T09:40:58.298Z,6.93
2023-02-19T09:44:04.865Z,7.21
2023-02-19T09:47:16.474Z,7.31
2023-02-19T09:50:23.984Z,7.11
2023-02-19T09:53:36.195Z,7.48
2023-02-19T09:56:38.977Z,7.77
2023-02-19T09:59:47.282Z,7.84
2023-02-19T10:02:52.970Z,7.78
2023-02-19T10:05:56.464Z,8.01
2023-02-19T10:09:14.320Z,7.99
2023-02-19T10:12:27.569Z,7.74
2023-02-19T10:15:36.081Z,7.96
2023-02-19T10:18:42.295Z,8.17
2023-02-19T10:21:45.905Z,8.70
2023-02-19T10:24:53.095Z,8.97
2023-02-19T10:27:55.968Z,9.59
2023-02-19T10:31:01.542Z,10.41
2023-02-19T10:34:05.556Z,10.21
2023-02-19T10:37:15.378Z,10.81
2023-02-19T10:40:20.011Z,10.61
2023-02-19T10:43:32.958Z,11.07
2023-02-19T10:46:43.272Z,11.55
2023-02-19T10:49:48.734Z,12.43
2023-02-19T10:52:54.096Z,12.34
2023-02-19T10:56:09.116Z,12.61
2023-02-19T10:59:25.716Z,13.53
2023-02-19T11:02:30.996Z,14.89
2023-02-19T11:05:34.936Z,15.45
2023-02-19T11:08:58.616Z,15.57
2023-02-19T11:12:01.484Z,14.80
2023-02-19T11:15:21.082Z,14.98
2023-02-19T11:18:27.215Z,13.79
2023-02-19T11:21:33.081Z,14.33
2023-02-19T11:24:38.005Z,15.85
2023-02-19T11:27:56.022Z,16.54
2023-02-19T11:31:16.215Z,17.00
2023-02-19T11:34:34.962Z,16.55
2023-02-19T11:37:37.796Z,16.57
2023-02-19T11:40:44.823Z,16.38
2023-02-19T11:43:59.701Z,16.60
2023-02-19T11:47:26.798Z,16.86
2023-02-19T11:50:47.431Z,15.87
2023-02-19T11:54:01.964Z,16.72
2023-02-19T11:57:12.554Z,16.02
2023-02-19T12:00:24.800Z,14.46
2023-02-19T12:03:55.981Z,13.67
2023-02-19T12:07:12.272Z,12.65
2023-02-19T12:10:21.858Z,12.54
2023-02-19T12:13:34.246Z,12.20
2023-02-19T12:16:44.422Z,12.63
2023-02-19T12:20:03.676Z,13.36
2023-02-19T12:23:33.813Z,13.51
2023-02-19T12:26:44.749Z,13.58
2023-02-19T12:29:59.951Z,12.94
2023-02-19T12:33:28.558Z,12.45
2023-02-19T12:36:39.430Z,11.75
2023-02-19T12:39:48.774Z,11.40
2023-02-19T12:43:02.836Z,11.30
2023-02-19T12:46:09.257Z,10.95
2023-02-19T12:49:15.536Z,10.89
2023-02-19T12:52:22.454Z,11.63
2023-02-19T12:55:29.825Z,12.29
2023-02-19T12:58:39.812Z,13.87
2023-02-19T13:01:49.849Z,15.46
2023-02-19T13:04:59.716Z,16.30
2023-02-19T13:08:07.528Z,16.71
2023-02-19T13:11:17.492Z,15.23
2023-02-19T13:14:27.257Z,14.71
2023-02-19T13:17:38.496Z,14.59
2023-02-19T13:20:44.147Z,14.87
2023-02-19T13:24:03.053Z,15.23
2023-02-19T13:27:24.847Z,16.69
2023-02-19T13:30:41.998Z,16.65
2023-02-19T13:33:55.263Z,17.51
2023-02-19T13:36:59.663Z,16.22
2023-02-19T13:40:06.895Z,16.78
2023-02-19T13:43:26.457Z,16.78
2023-02-19T13:46:37.709Z,16.07
2023-02-19T13:49:43.406Z,15.75
2023-02-19T13:52:46.083Z,16.12
2023-02-19T13:55:53.902Z,15.43
2023-02-19T13:59:01.415Z,15.34
2023-02-19T14:02:26.580Z,14.31
2023-02-19T14:06:00.186Z,14.16
2023-02-19T14:09:02.882Z,13.28
2023-02-19T14:12:19.702Z,13.31
2023-02-19T14:15:45.159Z,12.80
2023-02-19T14:18:47.976Z,13.21
2023-02-19T14:21:50.785Z,13.32
2023-02-19T14:24:54.372Z,12.54
2023-02-19T14:28:02.391Z,12.06
2023-02-19T14:31:18.553Z,12.67
2023-02-19T14:34:25.126Z,12.25
2023-02-19T14:37:27.949Z,11.08
2023-02-19T14:40:36.579Z,11.23
2023-02-19T14:43:40.510Z,11.24
2023-02-19T14:46:50.553Z,11.68
2023-02-19T14:49:55.678Z,12.30
2023-02-19T14:53:01.344Z,12.27
2023-02-19T14:56:04.291Z,12.01
2023-02-19T14:59:10.282Z,11.93
2023-02-19T15:02:17.871Z,11.80
2023-02-19T15:05:25.088Z,11.62
2023-02-19T15:08:34.142Z,11.81
2023-02-19T15:11:38.417Z,11.57
2023-02-19T15:14:41.498Z,11.65
2023-02-19T15:17:45.759Z,10.76
2023-02-19T15:20:49.748Z,10.41
2023-02-19T15:23:54.914Z,9.82
2023-02-19T15:26:57.727Z,9.86
2023-02-19T15:30:00.411Z,9.60
2023-02-19T15:33:05.887Z,9.35
2023-02-19T15:36:10.640Z,9.54
2023-02-19T15:39:20.502Z,9.04
2023-02-19T15:42:26.773Z,8.86
2023-02-19T15:45:32.551Z,8.63
2023-02-19T15:48:44.217Z,8.84
2023-02-19T15:51:51.526Z,9.08
2023-02-19T15:54:58.447Z,8.72
2023-02-19T15:58:09.620Z,8.43
2023-02-19T16:01:18.031Z,8.52
2023-02-19T16:04:22.309Z,8.26
2023-02-19T16:07:27.344Z,8.39
2023-02-19T16:10:32.498Z,8.73
2023-02-19T16:13:36.183Z,8.67
2023-02-19T16:16:41.921Z,8.67
2023-02-19T16:19:49.747Z,8.74
2023-02-19T16:22:57.359Z,8.76
2023-02-19T16:26:01.971Z,8.53
2023-02-19T16:29:04.779Z,8.32
2023-02-19T16:32:09.544Z,8.47
2023-02-19T16:35:37.395Z,8.51
2023-02-19T16:38:40.052Z,8.29
2023-02-19T16:42:12.513Z,8.19
2023-02-19T16:45:15.403Z,7.98
2023-02-19T16:48:20.067Z,8.32
2023-02-19T16:51:26.457Z,8.19
2023-02-19T16:54:29.114Z,8.21
2023-02-19T16:57:31.769Z,8.07
2023-02-19T17:00:34.957Z,8.03
2023-02-19T17:03:39.564Z,8.07
2023-02-19T17:06:44.344Z,8.07
2023-02-19T17:09:47.219Z,7.97
2023-02-19T17:12:50.170Z,8.02
2023-02-19T17:15:52.917Z,7.80
2023-02-19T17:18:56.397Z,8.10
2023-02-19T17:22:00.608Z,7.99
2023-02-19T17:25:03.496Z,7.68
2023-02-19T17:28:06.474Z,7.82
2023-02-19T17:31:10.067Z,7.83
2023-02-19T17:34:12.994Z,7.70
2023-02-19T17:37:17.504Z,7.72
2023-02-19T17:40:32.204Z,7.64
2023-02-19T17:43:36.075Z,7.64
2023-02-19T17:46:39.443Z,7.56
2023-02-19T17:49:42.146Z,7.71
2023-02-19T17:52:46.287Z,7.74
2023-02-19T17:55:49.092Z,7.73
2023-02-19T17:58:51.850Z,7.50
2023-02-19T18:01:55.103Z,7.51
2023-02-19T18:04:57.811Z,7.55
2023-02-19T18:08:01.842Z,7.42
2023-02-19T18:11:04.778Z,7.43
2023-02-19T18:14:07.450Z,7.44
2023-02-19T18:17:10.273Z,7.54
2023-02-19T18:20:15.189Z,7.56
2023-02-19T18:23:20.499Z,7.72
2023-02-19T18:26:23.252Z,7.85
2023-02-19T18:29:28.810Z,7.69
2023-02-19T18:32:31.485Z,7.76
2023-02-19T18:35:34.930Z,7.39
2023-02-19T18:38:39.331Z,7.54
2023-02-19T18:41:42.211Z,7.56
2023-02-19T18:44:48.551Z,7.60
2023-02-19T18:47:51.345Z,7.39
2023-02-19T18:50:54.144Z,7.41
2023-02-19T18:53:58.369Z,7.52
2023-02-19T18:57:02.209Z,7.48
2023-02-19T19:00:06.368Z,7.43
2023-02-19T19:03:09.082Z,7.55
2023-02-19T19:06:11.969Z,7.54
2023-02-19T19:09:16.073Z,7.41
2023-02-19T19:12:18.857Z,7.39
2023-02-19T19:15:22.064Z,7.32
2023-02-19T19:18:25.261Z,7.39
2023-02-19T19:21:27.957Z,7.55
2023-02-19T19:24:31.994Z,7.40
2023-02-19T19:27:34.658Z,7.58
2023-02-19T19:30:37.851Z,7.43
2023-02-19T19:33:40.652Z,7.19
2023-02-19T19:36:43.393Z,7.17
2023-02-19T19:39:47.423Z,7.32
2023-02-19T19:42:52.136Z,7.32
2023-02-19T19:45:54.987Z,7.17
2023-02-19T19:48:57.660Z,7.21
2023-02-19T19:52:01.192Z,7.28
2023-02-19T19:55:05.760Z,7.08
2023-02-19T19:58:08.480Z,7.04
2023-02-19T20:01:11.502Z,7.06
2023-02-19T20:04:14.438Z,7.20
2023-02-19T20:07:17.296Z,6.88
2023-02-19T20:10:21.816Z,6.90
2023-02-19T20:13:24.716Z,6.93
2023-02-19T20:16:28.418Z,6.74
2023-02-19T20:19:31.193Z,6.68
2023-02-19T20:22:34.788Z,6.57
2023-02-19T20:25:38.840Z,6.75
2023-02-19T20:28:45.105Z,6.55
2023-02-19T20:31:52.546Z,6.58
2023-02-19T20:34:55.526Z,6.48
2023-02-19T20:37:58.246Z,6.50
2023-02-19T20:41:02.358Z,6.35
2023-02-19T20:44:05.533Z,6.18
2023-02-19T20:47:08.162Z,6.34
2023-02-19T20:50:11.758Z,6.33
2023-02-19T20:53:14.425Z,6.33
2023-02-19T20:56:18.432Z,6.37
2023-02-19T20:59:22.697Z,6.43
2023-02-19T21:02:29.152Z,6.40
2023-02-19T21:05:31.947Z,6.17
2023-02-19T21:08:35.430Z,6.39
2023-02-19T21:11:39.660Z,6.42
2023-02-19T21:14:43.170Z,6.37
2023-02-19T21:17:46.508Z,6.37
2023-02-19T21:20:49.211Z,6.23
2023-02-19T21:23:51.942Z,6.15
2023-02-19T21:26:56.136Z,6.33
2023-02-19T21:29:58.821Z,6.13
2023-02-19T21:33:01.665Z,5.75
2023-02-19T21:36:05.045Z,5.82
2023-02-19T21:39:10.017Z,6.04
2023-02-19T21:42:14.080Z,5.79
2023-02-19T21:45:16.933Z,6.04
2023-02-19T21:48:19.577Z,6.03
2023-02-19T21:51:28.372Z,5.80
2023-02-19T21:54:31.083Z,5.97
2023-02-19T21:57:35.133Z,5.81
2023-02-19T22:00:37.990Z,5.88
2023-02-19T22:03:40.690Z,6.07
2023-02-19T22:06:43.491Z,6.01
2023-02-19T22:09:46.275Z,5.95
2023-02-19T22:12:50.285Z,6.04
2023-02-19T22:15:52.947Z,6.03
2023-02-19T22:18:56.970Z,5.79
2023-02-19T22:21:59.644Z,5.83
2023-02-19T22:25:02.328Z,6.03
2023-02-19T22:28:07.617Z,5.92
2023-02-19T22:31:10.277Z,5.78
2023-02-19T22:34:13.547Z,6.02
2023-02-19T22:37:16.243Z,6.00
2023-02-19T22:40:18.917Z,6.08
2023-02-19T22:43:23.032Z,6.11
2023-02-19T22:46:28.248Z,6.25
2023-02-19T22:49:30.957Z,6.03
2023-02-19T22:52:33.788Z,6.06
2023-02-19T22:55:36.535Z,5.92
2023-02-19T22:58:40.791Z,5.89
2023-02-19T23:01:43.752Z,6.05
2023-02-19T23:04:46.416Z,5.81
2023-02-19T23:07:49.141Z,5.91
2023-02-19T23:10:51.817Z,6.01
2023-02-19T23:13:55.990Z,5.98
2023-02-19T23:16:58.858Z,5.78
2023-02-19T23:20:01.801Z,5.84
2023-02-19T23:23:04.490Z,5.74
2023-02-19T23:26:07.307Z,5.90
2023-02-19T23:29:11.674Z,5.83
2023-02-19T23:32:14.349Z,5.89
2023-02-19T23:35:17.238Z,5.69
2023-02-19T23:38:20.112Z,5.82
2023-02-19T23:41:22.855Z,5.76
2023-02-19T23:44:27.230Z,5.74
2023-02-19T23:47:30.801Z,6.02
2023-02-19T23:50:33.502Z,5.88
2023-02-19T23:53:36.185Z,5.75
2023-02-19T23:56:39.107Z,5.95
2023-02-19T23:59:43.171Z,5.95
